createdAt,value
2018-10-06T00:00:03.136Z,0
2018-10-06T00:05:02.642Z,0
2018-10-06T00:10:03.388Z,0
2018-10-06T00:15:03.005Z,0
2018-10-06T00:20:02.717Z,0
2018-10-06T00:25:03.290Z,0
2018-10-06T00:30:02.877Z,0
2018-10-06T00:35:03.509Z,0
2018-10-06T00:40:03.291Z,0
2018-10-06T00:45:02.905Z,0
2018-10-06T00:50:03.448Z,0
2018-10-06T00:55:03.095Z,0
2018-10-06T01:00:02.720Z,0
2018-10-06T01:05:03.371Z,0
2018-10-06T01:10:03.038Z,0
2018-10-06T01:15:02.652Z,0
2018-10-06T01:20:03.280Z,0
2018-10-06T01:25:03.088Z,0
2018-10-06T01:30:02.780Z,0
2018-10-06T01:35:03.435Z,0
2018-10-06T01:40:03.106Z,0
2018-10-06T01:45:02.769Z,0
2018-10-06T01:50:03.946Z,0
2018-10-06T01:55:02.792Z,0
2018-10-06T02:00:03.490Z,0
2018-10-06T02:05:03.083Z,0
2018-10-06T02:10:02.752Z,0
2018-10-06T02:15:03.295Z,0
2018-10-06T02:20:02.892Z,0
2018-10-06T02:25:03.560Z,0
2018-10-06T02:30:03.828Z,0
2018-10-06T02:35:02.653Z,0
2018-10-06T02:40:03.355Z,0
2018-10-06T02:45:02.910Z,0
2018-10-06T02:50:03.502Z,0
2018-10-06T02:55:03.070Z,0
2018-10-06T03:00:02.664Z,0
2018-10-06T03:05:03.350Z,0
2018-10-06T03:10:02.965Z,0
2018-10-06T03:15:02.589Z,0
2018-10-06T03:20:03.227Z,0
2018-10-06T03:25:02.817Z,0
2018-10-06T03:30:03.391Z,0
2018-10-06T03:35:03.048Z,0
2018-10-06T03:40:02.724Z,0
2018-10-06T03:45:03.313Z,0
2018-10-06T03:50:02.992Z,0
2018-10-06T03:55:02.559Z,0
2018-10-06T04:00:03.236Z,0
2018-10-06T04:05:02.769Z,0
2018-10-06T04:10:03.416Z,0
2018-10-06T04:15:03.004Z,0
2018-10-06T04:20:03.575Z,0
2018-10-06T04:25:03.190Z,0
2018-10-06T04:30:03.398Z,0
2018-10-06T04:35:02.983Z,0
2018-10-06T04:40:02.633Z,0
2018-10-06T04:45:03.298Z,0
2018-10-06T04:50:03.431Z,0
2018-10-06T04:55:02.764Z,0
2018-10-06T05:00:04.056Z,0
2018-10-06T05:05:03.224Z,0
2018-10-06T05:10:03.454Z,0
2018-10-06T05:15:03.433Z,0
2018-10-06T05:20:03.139Z,0
2018-10-06T05:25:03.434Z,0
2018-10-06T05:30:03.238Z,0
2018-10-06T05:35:03.143Z,0
2018-10-06T05:40:02.841Z,0
2018-10-06T05:45:03.481Z,0
2018-10-06T05:50:03.071Z,0
2018-10-06T05:55:02.680Z,0
2018-10-06T06:00:03.313Z,0
2018-10-06T06:05:02.872Z,0
2018-10-06T06:10:03.282Z,0
2018-10-06T06:15:03.168Z,0
2018-10-06T06:20:02.791Z,0
2018-10-06T06:25:03.418Z,0
2018-10-06T06:30:03.201Z,0
2018-10-06T06:35:02.780Z,0
2018-10-06T06:40:03.522Z,0
2018-10-06T06:45:03.214Z,0
2018-10-06T06:50:02.769Z,0
2018-10-06T06:55:03.906Z,0
2018-10-06T07:00:03.301Z,0
2018-10-06T07:05:02.870Z,0
2018-10-06T07:10:02.718Z,0
2018-10-06T07:15:03.414Z,0
2018-10-06T07:20:02.958Z,0
2018-10-06T07:25:02.550Z,0
2018-10-06T07:30:03.242Z,0
2018-10-06T07:35:02.871Z,0
2018-10-06T07:40:02.583Z,0
2018-10-06T07:45:04.335Z,0
2018-10-06T07:50:03.021Z,0
2018-10-06T07:55:02.673Z,0
2018-10-06T08:00:03.422Z,0
2018-10-06T08:05:03.024Z,0
2018-10-06T08:10:02.749Z,0
2018-10-06T08:15:03.506Z,0
2018-10-06T08:20:03.130Z,0
2018-10-06T08:25:02.838Z,0
2018-10-06T08:30:03.469Z,0
2018-10-06T08:35:03.017Z,0
2018-10-06T08:40:02.720Z,0
2018-10-06T08:45:03.545Z,0
2018-10-06T08:50:03.155Z,0
2018-10-06T08:55:02.750Z,0
2018-10-06T09:00:03.415Z,0
2018-10-06T09:05:03.038Z,0
2018-10-06T09:10:02.697Z,0
2018-10-06T09:15:03.290Z,0
2018-10-06T09:20:02.876Z,0
2018-10-06T09:25:03.486Z,0
2018-10-06T09:30:03.026Z,0
2018-10-06T09:35:02.718Z,0
2018-10-06T09:40:03.497Z,0
2018-10-06T09:45:03.126Z,0
2018-10-06T09:50:02.725Z,3
2018-10-06T09:55:03.348Z,3
2018-10-06T10:00:03.020Z,3
2018-10-06T10:05:02.739Z,4
2018-10-06T10:10:04.155Z,1
2018-10-06T10:15:03.231Z,0
2018-10-06T10:20:02.749Z,5
2018-10-06T10:25:03.379Z,3
2018-10-06T10:30:02.928Z,0
2018-10-06T10:35:03.485Z,2
2018-10-06T10:40:03.181Z,3
2018-10-06T10:45:02.853Z,2
2018-10-06T10:50:03.494Z,3
2018-10-06T10:55:03.155Z,0
2018-10-06T11:00:04.220Z,4
2018-10-06T11:05:02.726Z,3
2018-10-06T11:10:03.389Z,3
2018-10-06T11:15:02.969Z,2
2018-10-06T11:20:03.617Z,0
2018-10-06T11:25:03.204Z,3
2018-10-06T11:30:02.867Z,3
2018-10-06T11:35:03.581Z,1
2018-10-06T11:40:03.248Z,3
2018-10-06T11:45:02.898Z,3
2018-10-06T11:50:03.759Z,7
2018-10-06T11:55:03.478Z,1
2018-10-06T12:00:03.565Z,3
2018-10-06T12:05:02.882Z,2
2018-10-06T12:10:02.674Z,2
2018-10-06T12:15:03.315Z,1
2018-10-06T12:20:03.004Z,0
2018-10-06T12:25:02.714Z,3
2018-10-06T12:30:03.396Z,5
2018-10-06T12:35:03.591Z,4
2018-10-06T12:40:03.418Z,5
2018-10-06T12:45:03.053Z,5
2018-10-06T12:50:02.699Z,7
2018-10-06T12:55:03.366Z,0
2018-10-06T13:00:03.249Z,5
2018-10-06T13:05:03.081Z,2
2018-10-06T13:10:02.760Z,4
2018-10-06T13:15:03.399Z,3
2018-10-06T13:20:03.247Z,0
2018-10-06T13:25:02.834Z,2
2018-10-06T13:30:03.490Z,2
2018-10-06T13:35:03.126Z,5
2018-10-06T13:40:02.910Z,3
2018-10-06T13:45:03.564Z,4
2018-10-06T13:50:03.128Z,0
2018-10-06T13:55:02.796Z,5
2018-10-06T14:00:03.326Z,2
2018-10-06T14:05:02.910Z,3
2018-10-06T14:10:02.623Z,2
2018-10-06T14:15:03.354Z,2
2018-10-06T14:20:03.126Z,3
2018-10-06T14:25:02.752Z,3
2018-10-06T14:30:03.333Z,2
2018-10-06T14:35:02.926Z,2
2018-10-06T14:40:02.693Z,1
2018-10-06T14:45:03.357Z,3
2018-10-06T14:50:03.228Z,2
2018-10-06T14:55:03.078Z,5
2018-10-06T15:00:02.692Z,0
2018-10-06T15:05:03.345Z,2
2018-10-06T15:10:03.271Z,3
2018-10-06T15:15:02.925Z,4
2018-10-06T15:20:02.636Z,5
2018-10-06T15:25:03.261Z,0
2018-10-06T15:30:02.857Z,0
2018-10-06T15:35:03.593Z,0
2018-10-06T15:40:03.215Z,0
2018-10-06T15:45:02.979Z,0
2018-10-06T15:50:02.539Z,0
2018-10-06T15:55:03.081Z,2
2018-10-06T16:00:02.669Z,0
2018-10-06T16:05:03.360Z,0
2018-10-06T16:15:02.919Z,0
2018-10-06T16:20:02.638Z,0
2018-10-06T16:25:03.220Z,0
2018-10-06T16:30:02.852Z,0
2018-10-06T16:40:03.535Z,0
2018-10-06T16:45:03.194Z,0
2018-10-06T16:50:02.756Z,0
2018-10-06T16:55:03.279Z,0
2018-10-06T17:00:03.058Z,0
2018-10-06T17:05:02.795Z,0
2018-10-06T17:10:03.521Z,0
2018-10-06T17:15:03.180Z,0
2018-10-06T17:20:02.847Z,0
2018-10-06T17:25:03.804Z,0
2018-10-06T17:30:02.767Z,0
2018-10-06T17:35:03.414Z,0
2018-10-06T17:40:03.154Z,0
2018-10-06T17:45:02.858Z,0
2018-10-06T17:50:04.298Z,0
2018-10-06T17:55:02.743Z,0
2018-10-06T18:00:03.342Z,0
2018-10-06T18:05:03.605Z,0
2018-10-06T18:10:03.041Z,0
2018-10-06T18:15:02.722Z,0
2018-10-06T18:20:03.914Z,0
2018-10-06T18:25:02.647Z,0
2018-10-06T18:30:03.286Z,0
2018-10-06T18:35:02.977Z,0
2018-10-06T18:40:02.652Z,0
2018-10-06T18:45:03.381Z,0
2018-10-06T18:50:02.884Z,0
2018-10-06T18:55:03.596Z,0
2018-10-06T19:00:03.232Z,0
2018-10-06T19:05:03.033Z,0
2018-10-06T19:10:03.006Z,0
2018-10-06T19:15:03.043Z,0
2018-10-06T19:20:02.950Z,0
2018-10-06T19:25:02.577Z,0
2018-10-06T19:30:03.228Z,0
2018-10-06T19:35:02.810Z,0
2018-10-06T19:40:03.558Z,0
2018-10-06T19:45:03.244Z,0
2018-10-06T19:50:02.901Z,0
2018-10-06T19:55:03.484Z,0
2018-10-06T20:00:03.395Z,0
2018-10-06T20:05:03.114Z,0
2018-10-06T20:10:02.816Z,2
2018-10-06T20:15:03.391Z,1
2018-10-06T20:20:03.056Z,0
2018-10-06T20:25:02.759Z,0
2018-10-06T20:30:03.391Z,2
2018-10-06T20:35:03.026Z,0
2018-10-06T20:40:02.846Z,0
2018-10-06T20:45:03.917Z,0
2018-10-06T20:50:02.556Z,0
2018-10-06T20:55:03.091Z,1
2018-10-06T21:00:02.647Z,0
2018-10-06T21:05:03.326Z,0
2018-10-06T21:10:03.091Z,0
2018-10-06T21:15:02.686Z,0
2018-10-06T21:20:03.358Z,0
2018-10-06T21:25:03.021Z,0
2018-10-06T21:30:02.674Z,0
2018-10-06T21:35:03.368Z,1
2018-10-06T21:40:03.126Z,2
2018-10-06T21:45:02.715Z,1
2018-10-06T21:50:03.290Z,3
2018-10-06T21:55:02.903Z,2
2018-10-06T22:00:03.499Z,3
2018-10-06T22:05:03.429Z,2
2018-10-06T22:10:03.171Z,2
2018-10-06T22:15:03.089Z,2
2018-10-06T22:20:02.752Z,1
2018-10-06T22:25:03.465Z,3
2018-10-06T22:30:02.966Z,3
2018-10-06T22:35:02.709Z,0
2018-10-06T22:40:03.410Z,3
2018-10-06T22:45:03.007Z,1
2018-10-06T22:50:02.946Z,2
2018-10-06T22:55:02.581Z,1
2018-10-06T23:00:03.173Z,0
2018-10-06T23:05:02.716Z,1
2018-10-06T23:10:03.426Z,1
2018-10-06T23:15:03.078Z,1
2018-10-06T23:20:02.742Z,3
2018-10-06T23:25:03.409Z,4
2018-10-06T23:30:02.944Z,3
2018-10-06T23:35:02.654Z,4
2018-10-06T23:40:03.330Z,3
2018-10-06T23:45:02.980Z,6
2018-10-06T23:50:02.596Z,4
2018-10-06T23:55:03.179Z,5
